Time;durP1;ratioP1;P1;durP2;ratioP2;P2;SDS_P1;SDS_P2;PMS_P1;PMS_P2;Temp;Humidity;BMP_temperature;BMP_pressure;BME280_temperature;BME280_humidity;BME280_pressure;Samples;Min_cycle;Max_cycle;Signal;HPM_P1;HPM_P2
2022/06/01 00:00:47;;;;;;;1.40;1.00;;;;;;;19.69;50.76;96586.44;10180264;29;20051;-84
2022/06/01 00:06:07;;;;;;;1.10;0.88;;;;;;;19.69;50.95;96588.34;10177777;29;20056;-83
2022/06/01 00:11:27;;;;;;;1.65;1.05;;;;;;;19.70;50.80;96589.94;10180460;29;20578;-83
2022/06/01 00:16:46;;;;;;;1.80;1.15;;;;;;;19.68;50.79;96578.66;10158160;29;20040;-83
2022/06/01 00:22:11;;;;;;;2.00;1.10;;;;;;;19.68;50.86;96573.25;10167164;29;20052;-83
2022/06/01 00:27:31;;;;;;;1.60;1.02;;;;;;;19.67;50.69;96564.34;10178224;29;20578;-83
2022/06/01 00:32:50;;;;;;;0.80;0.80;;;;;;;19.68;50.91;96579.47;10166355;29;20056;-83
2022/06/01 00:38:10;;;;;;;1.08;0.95;;;;;;;19.67;51.09;96572.47;10172205;29;20052;-83
2022/06/01 00:43:44;;;;;;;1.02;0.80;;;;;;;19.66;50.99;96570.06;10170952;29;20045;-83
2022/06/01 00:49:15;;;;;;;1.95;1.20;;;;;;;19.67;51.06;96566.28;10167322;29;20059;-83
2022/06/01 00:54:35;;;;;;;1.23;0.90;;;;;;;19.66;51.00;96554.69;10163068;29;20504;-83
2022/06/01 00:59:54;;;;;;;0.85;0.70;;;;;;;19.67;51.15;96555.47;10167716;29;20601;-83
2022/06/01 01:05:16;;;;;;;1.20;0.90;;;;;;;19.66;51.02;96548.47;10180027;29;20055;-83
2022/06/01 01:10:35;;;;;;;0.93;0.73;;;;;;;19.66;51.03;96548.47;10178213;29;20048;-83
2022/06/01 01:15:55;;;;;;;1.10;1.00;;;;;;;19.65;51.18;96563.88;10157906;29;20044;-83
2022/06/01 01:21:27;;;;;;;1.00;0.90;;;;;;;19.65;51.07;96571.22;10184377;29;20130;-83
2022/06/01 01:26:49;;;;;;;1.17;0.65;;;;;;;19.65;51.03;96582.81;10162240;29;20063;-83
2022/06/01 01:32:11;;;;;;;0.93;0.77;;;;;;;19.64;51.18;96588.53;10159448;29;20108;-83
2022/06/01 01:37:31;;;;;;;1.02;0.70;;;;;;;19.64;51.24;96597.47;10186251;29;20603;-83
2022/06/01 01:42:50;;;;;;;1.50;0.95;;;;;;;19.63;51.31;96595.06;10163459;29;20496;-83
2022/06/01 01:48:12;;;;;;;0.70;0.70;;;;;;;19.62;51.12;96588.88;10175375;29;20077;-83
2022/06/01 01:53:32;;;;;;;0.98;0.85;;;;;;;19.63;51.36;96587.75;10173936;29;20055;-83
2022/06/01 01:59:36;;;;;;;0.80;0.80;;;;;;;19.63;51.41;96586.97;10173296;29;20063;-83
2022/06/01 02:16:40;;;;;;;1.05;0.80;;;;;;;19.61;51.25;96568.38;10162158;29;20092;-83
2022/06/01 02:22:00;;;;;;;1.13;0.80;;;;;;;19.60;51.31;96568.69;10174283;29;20423;-83
2022/06/01 02:27:20;;;;;;;1.10;1.00;;;;;;;19.60;51.29;96576.81;10156645;29;20508;-83
2022/06/01 02:32:41;;;;;;;0.80;0.70;;;;;;;19.59;51.28;96596.84;10169831;29;20484;-83
2022/06/01 02:38:02;;;;;;;0.80;0.73;;;;;;;19.59;51.33;96594.94;10165227;29;20118;-83
2022/06/01 02:43:23;;;;;;;0.63;0.63;;;;;;;19.58;51.35;96590.63;10182335;29;20071;-83
2022/06/01 02:48:43;;;;;;;0.60;0.60;;;;;;;19.57;51.23;96599.88;10181943;29;20108;-83
2022/06/01 02:54:03;;;;;;;0.80;0.80;;;;;;;19.58;51.32;96614.19;10181096;29;20052;-83
2022/06/01 02:59:22;;;;;;;1.25;0.70;;;;;;;19.56;51.28;96614.50;10168871;29;20416;-83
2022/06/01 03:04:42;;;;;;;0.75;0.70;;;;;;;19.56;51.39;96612.59;10155570;29;20052;-83
2022/06/01 03:10:03;;;;;;;0.70;0.70;;;;;;;19.55;51.58;96611.00;10182676;29;20052;-83
2022/06/01 03:15:23;;;;;;;1.10;0.80;;;;;;;19.55;51.30;96619.13;10177605;29;20056;-83
2022/06/01 03:20:43;;;;;;;0.70;0.70;;;;;;;19.55;51.48;96596.72;10165425;29;20056;-83
2022/06/01 03:26:02;;;;;;;1.30;0.80;;;;;;;19.56;51.36;96619.91;10166213;29;20511;-83
2022/06/01 03:31:21;;;;;;;1.90;0.70;;;;;;;19.54;51.36;96612.16;10169038;29;20044;-83
2022/06/01 03:36:41;;;;;;;0.95;0.77;;;;;;;19.52;51.29;96608.97;10182696;29;20100;-83
2022/06/01 03:42:01;;;;;;;1.00;0.80;;;;;;;19.53;51.29;96599.75;10181095;29;20056;-83
2022/06/01 03:47:20;;;;;;;0.75;0.70;;;;;;;19.53;51.40;96591.63;10180393;29;20848;-83
2022/06/01 03:52:39;;;;;;;0.63;0.63;;;;;;;19.54;51.37;96619.44;10179729;29;20695;-83
2022/06/01 03:57:59;;;;;;;1.20;0.80;;;;;;;19.53;51.37;96629.47;10171012;29;20063;-83
2022/06/01 04:03:18;;;;;;;2.35;0.70;;;;;;;19.53;51.43;96631.38;10164263;29;20071;-83
2022/06/01 04:08:37;;;;;;;0.70;0.52;;;;;;;19.55;51.33;96643.44;10183136;29;20055;-82
2022/06/01 04:13:57;;;;;;;1.20;0.90;;;;;;;19.56;51.58;96623.41;10190428;29;20044;-82
2022/06/01 04:19:16;;;;;;;1.30;0.80;;;;;;;19.56;51.77;96634.22;10184782;29;20060;-81
2022/06/01 04:24:36;;;;;;;1.10;0.80;;;;;;;19.58;51.53;96627.69;10171786;29;20054;-82
2022/06/01 04:29:55;;;;;;;2.30;0.60;;;;;;;19.57;51.72;96653.91;10173140;29;20056;-82
2022/06/01 04:35:15;;;;;;;0.70;0.70;;;;;;;19.57;51.88;96656.63;10172217;29;20396;-82
2022/06/01 04:40:35;;;;;;;0.60;0.60;;;;;;;19.61;52.24;96635.94;10173406;29;20048;-81
2022/06/01 04:45:56;;;;;;;1.20;0.80;;;;;;;19.63;51.88;96619.41;10173742;29;20054;-82
2022/06/01 04:51:16;;;;;;;0.80;0.80;;;;;;;19.65;52.35;96623.34;10191232;29;20523;-81
2022/06/01 04:56:35;;;;;;;1.08;1.00;;;;;;;19.68;52.37;96617.28;10166943;29;20492;-84
2022/06/01 05:01:55;;;;;;;1.00;0.65;;;;;;;19.71;52.14;96645.56;10176861;29;20059;-84
2022/06/01 05:07:14;;;;;;;7.05;1.05;;;;;;;19.63;50.63;96630.22;10180325;29;20059;-83
2022/06/01 05:12:34;;;;;;;8.25;1.40;;;;;;;19.64;50.82;96648.00;10184777;29;20542;-83
2022/06/01 05:17:53;;;;;;;4.53;1.70;;;;;;;19.68;51.38;96655.13;10177785;29;20062;-83
2022/06/01 05:23:13;;;;;;;8.50;1.98;;;;;;;19.72;51.27;96658.00;10183693;29;20500;-83
2022/06/01 05:28:33;;;;;;;12.73;2.92;;;;;;;19.74;51.21;96672.75;10181402;29;20472;-83
2022/06/01 05:33:53;;;;;;;11.00;3.38;;;;;;;19.77;51.20;96676.72;10170941;29;20636;-83
2022/06/01 05:39:12;;;;;;;9.80;3.00;;;;;;;19.77;50.91;96679.41;10169873;29;20058;-83
2022/06/01 05:44:31;;;;;;;11.27;3.10;;;;;;;19.78;50.98;96686.41;10175060;29;20052;-83
2022/06/01 05:49:51;;;;;;;8.00;2.65;;;;;;;19.77;50.84;96679.41;10163314;29;20048;-83
2022/06/01 05:55:12;;;;;;;8.43;2.65;;;;;;;19.79;50.56;96684.50;10190917;29;20453;-82
2022/06/01 06:00:31;;;;;;;7.47;2.45;;;;;;;19.79;50.59;96679.88;10177088;29;20052;-81
2022/06/01 06:11:39;;;;;;;5.90;2.30;;;;;;;19.81;50.52;96680.34;10182991;29;20056;-82
2022/06/01 06:16:59;;;;;;;4.50;1.90;;;;;;;19.82;50.46;96681.16;10175060;29;20064;-82
2022/06/01 06:22:18;;;;;;;4.97;1.95;;;;;;;19.82;50.22;96691.97;10189047;29;20060;-82
2022/06/01 06:27:38;;;;;;;3.50;1.90;;;;;;;19.85;50.32;96691.28;10166593;29;20393;-81
2022/06/01 06:32:57;;;;;;;2.95;1.70;;;;;;;19.85;50.06;96680.47;10176153;29;20071;-82
2022/06/01 06:38:16;;;;;;;2.72;1.50;;;;;;;19.87;49.98;96683.66;10192715;29;20439;-83
2022/06/01 06:43:36;;;;;;;3.58;1.60;;;;;;;19.88;49.82;96682.53;10176545;29;20056;-82
2022/06/01 06:48:56;;;;;;;2.45;1.23;;;;;;;19.89;49.91;96686.81;10178545;29;20064;-82
2022/06/01 06:54:17;;;;;;;2.22;1.55;;;;;;;19.90;49.66;96689.19;10175082;29;20058;-83
2022/06/01 06:59:37;;;;;;;2.00;1.30;;;;;;;19.90;49.57;96683.78;10193924;29;20052;-83
2022/06/01 07:04:56;;;;;;;2.38;1.50;;;;;;;19.92;49.70;96688.88;10195458;29;20052;-82
2022/06/01 07:10:16;;;;;;;2.08;1.40;;;;;;;19.92;49.42;96681.53;10178137;29;20416;-83
2022/06/01 07:15:36;;;;;;;2.58;1.27;;;;;;;19.93;49.53;96685.84;10178555;29;20523;-82
2022/06/01 07:20:55;;;;;;;1.30;1.20;;;;;;;19.93;49.45;96683.13;10176037;29;20055;-82
2022/06/01 07:26:24;;;;;;;1.30;1.00;;;;;;;19.93;49.35;96683.13;10178790;29;20099;-82
2022/06/01 07:31:43;;;;;;;1.77;1.20;;;;;;;19.94;49.38;96684.72;10191231;29;20048;-82
2022/06/01 07:43:05;;;;;;;1.88;1.30;;;;;;;19.94;49.46;96683.91;10187645;29;20055;-82
2022/06/01 07:48:21;;;;;;;1.42;1.15;;;;;;;19.94;49.33;96689.31;10190574;29;20056;-83
2022/06/01 07:53:41;;;;;;;2.22;1.00;;;;;;;19.94;49.17;96694.72;10175317;29;20048;-83
2022/06/01 07:59:01;;;;;;;1.20;1.10;;;;;;;19.95;49.30;96697.13;10178875;29;20063;-83
2022/06/01 08:04:20;;;;;;;1.30;1.20;;;;;;;19.95;49.30;96701.72;10186648;29;20052;-83
2022/06/01 08:09:40;;;;;;;1.25;1.00;;;;;;;19.95;49.14;96705.22;10174944;29;20049;-82
2022/06/01 08:14:59;;;;;;;1.10;1.00;;;;;;;19.94;49.17;96714.44;10180105;29;20108;-83
2022/06/01 08:20:19;;;;;;;1.10;1.00;;;;;;;19.94;49.28;96708.25;10163005;29;20052;-83
2022/06/01 08:25:40;;;;;;;1.55;1.10;;;;;;;19.95;49.34;96709.81;10184909;29;20044;-83
2022/06/01 08:31:00;;;;;;;1.27;1.17;;;;;;;19.96;49.36;96703.31;10170402;29;20048;-83
2022/06/01 08:36:20;;;;;;;1.52;1.00;;;;;;;19.95;49.33;96702.53;10170958;29;20623;-83
2022/06/01 08:41:39;;;;;;;2.67;1.10;;;;;;;19.95;49.47;96713.34;10167100;29;20060;-83
2022/06/01 08:47:26;;;;;;;1.60;1.20;;;;;;;19.96;49.59;96714.13;10175235;29;20060;-82
2022/06/01 08:52:46;;;;;;;1.23;1.02;;;;;;;19.97;49.56;96704.09;10179897;29;20107;-83
2022/06/01 08:58:19;;;;;;;1.60;1.23;;;;;;;19.96;49.60;96708.72;10184402;29;20124;-83
2022/06/01 09:04:02;;;;;;;1.25;1.10;;;;;;;19.96;49.64;96711.41;10165418;29;20048;-83
2022/06/01 09:09:46;;;;;;;1.30;1.02;;;;;;;19.95;49.83;96713.34;10173311;29;20045;-85
2022/06/01 09:15:17;;;;;;;1.13;1.02;;;;;;;19.95;49.67;96716.03;10158589;29;20059;-83
2022/06/01 09:26:28;;;;;;;1.30;1.20;;;;;;;19.95;49.83;96694.41;10189137;29;20576;-83
2022/06/01 09:31:50;;;;;;;1.30;1.20;;;;;;;19.97;49.74;96704.88;10170565;29;20048;-83
2022/06/01 09:37:21;;;;;;;1.88;1.25;;;;;;;19.95;49.85;96702.53;10198195;29;20235;-83
2022/06/01 09:42:41;;;;;;;1.48;1.08;;;;;;;19.96;49.87;96703.31;10174352;29;20048;-83
2022/06/01 09:48:21;;;;;;;1.17;1.08;;;;;;;19.97;49.92;96704.09;10182497;29;20051;-83
2022/06/01 09:53:46;;;;;;;1.27;1.10;;;;;;;19.97;49.95;96704.09;10164415;29;20100;-83
2022/06/01 10:10:32;;;;;;;4.47;1.65;;;;;;;19.94;48.98;96710.97;10180872;29;20055;-83
2022/06/01 10:15:52;;;;;;;2.03;1.02;;;;;;;19.91;47.80;96692.69;10173306;29;20100;-82
2022/06/01 10:21:14;;;;;;;3.05;1.40;;;;;;;19.90;46.63;96713.53;10174982;29;20079;-83
2022/06/01 10:26:36;;;;;;;3.10;1.27;;;;;;;19.87;45.01;96700.66;10177509;29;20056;-83
2022/06/01 10:31:59;;;;;;;2.00;1.02;;;;;;;19.89;43.64;96686.81;10174055;29;20048;-83
2022/06/01 10:37:25;;;;;;;4.68;1.00;;;;;;;19.91;42.93;96695.38;10175540;29;20052;-83
2022/06/01 10:48:30;;;;;;;2.38;1.10;;;;;;;19.92;42.01;96680.75;10185662;29;20052;-83
2022/06/01 10:54:22;;;;;;;1.05;0.90;;;;;;;19.92;41.00;96686.94;10162030;29;20051;-83
2022/06/01 10:59:41;;;;;;;1.20;1.08;;;;;;;19.92;42.01;96676.13;10177428;29;20047;-83
2022/06/01 11:05:32;;;;;;;1.73;0.95;;;;;;;19.89;41.96;96692.22;10162896;29;20052;-83
2022/06/01 11:10:57;;;;;;;1.45;1.10;;;;;;;19.87;42.45;96689.84;10160979;29;20048;-83
2022/06/01 11:16:31;;;;;;;1.20;0.85;;;;;;;19.86;41.92;96701.78;10183415;29;20143;-83
2022/06/01 11:21:56;;;;;;;1.83;1.00;;;;;;;19.86;42.39;96696.38;10174807;29;20044;-83
2022/06/01 11:27:24;;;;;;;1.75;0.93;;;;;;;19.86;41.47;96674.75;10171243;29;20112;-83
2022/06/01 11:33:16;;;;;;;2.40;0.90;;;;;;;19.87;41.00;96684.44;10172312;29;20423;-83
2022/06/01 11:38:42;;;;;;;0.75;0.75;;;;;;;19.87;41.70;96681.72;10171093;29;20071;-83
2022/06/01 11:44:09;;;;;;;3.38;1.33;;;;;;;19.84;42.06;96690.50;10152949;29;20511;-83
2022/06/01 11:49:40;;;;;;;0.85;0.80;;;;;;;19.84;42.15;96685.09;10161718;29;20727;-83
2022/06/01 11:55:15;;;;;;;1.00;1.00;;;;;;;19.82;42.01;96676.53;10181860;29;20052;-83
2022/06/01 12:00:55;;;;;;;0.80;0.75;;;;;;;19.84;41.06;96681.63;10155413;29;20067;-83
2022/06/01 12:06:40;;;;;;;1.23;0.80;;;;;;;19.86;41.21;96671.25;10169542;29;20104;-83
2022/06/01 12:12:00;;;;;;;0.80;0.80;;;;;;;19.85;41.32;96675.06;10185719;29;20093;-83
2022/06/01 12:17:23;;;;;;;1.23;0.98;;;;;;;19.85;41.51;96664.25;10184125;29;20082;-82
2022/06/01 12:28:47;;;;;;;0.93;0.80;;;;;;;19.85;41.41;96662.34;10167792;29;20062;-82
2022/06/01 12:34:18;;;;;;;2.13;0.80;;;;;;;19.84;41.61;96660.00;10173962;29;20100;-83
2022/06/01 12:39:37;;;;;;;0.90;0.90;;;;;;;19.82;41.70;96663.00;10173791;29;20385;-82
2022/06/01 12:44:59;;;;;;;0.93;0.80;;;;;;;19.81;41.74;96656.00;10153292;29;20059;-83
2022/06/01 12:50:21;;;;;;;1.15;1.00;;;;;;;19.82;41.59;96670.34;10170574;29;20059;-82
2022/06/01 12:55:40;;;;;;;1.95;0.90;;;;;;;19.81;41.45;96664.13;10173799;29;20059;-83
2022/06/01 13:01:00;;;;;;;1.20;1.00;;;;;;;19.80;41.39;96664.44;10168725;29;20060;-83
2022/06/01 13:06:22;;;;;;;1.60;0.85;;;;;;;19.79;41.51;96668.28;10162300;29;20068;-82
2022/06/01 13:11:41;;;;;;;1.42;0.90;;;;;;;19.80;41.63;96650.94;10189985;29;20052;-83
2022/06/01 13:17:10;;;;;;;1.35;0.85;;;;;;;19.81;40.90;96656.00;10160042;29;20056;-82
2022/06/01 13:22:32;;;;;;;;;;;;;;;19.85;40.33;96654.22;10184658;29;20052;-82
2022/06/01 13:27:53;;;;;;;0.88;0.80;;;;;;;19.88;40.95;96641.97;10193095;29;19923;-82
2022/06/01 13:33:40;;;;;;;1.58;0.88;;;;;;;19.88;39.74;96641.97;10179576;29;20056;-83
2022/06/01 13:39:04;;;;;;;1.58;1.00;;;;;;;19.91;39.95;96642.09;10168773;29;20475;-83
2022/06/01 13:44:48;;;;;;;1.23;0.90;;;;;;;19.92;39.16;96649.09;10184438;29;20666;-83
2022/06/01 13:50:43;;;;;;;0.70;0.70;;;;;;;19.93;39.35;96648.00;10182722;29;20080;-82
2022/06/01 13:56:08;;;;;;;1.13;0.82;;;;;;;19.95;38.93;96631.41;10165097;29;20067;-83
2022/06/01 14:01:30;;;;;;;1.13;0.80;;;;;;;19.93;39.54;96626.38;10169482;29;20512;-83
2022/06/01 14:07:01;;;;;;;1.00;0.80;;;;;;;19.93;39.33;96617.44;10191150;29;20496;-83
2022/06/01 14:12:21;;;;;;;1.63;0.90;;;;;;;19.95;38.71;96613.31;10182551;29;20076;-83
2022/06/01 14:17:43;;;;;;;1.35;0.80;;;;;;;20.02;38.02;96614.69;10189315;29;20056;-81
2022/06/01 14:23:03;;;;;;;1.02;0.90;;;;;;;20.02;39.01;96609.28;10199552;29;20052;-82
2022/06/01 14:28:32;;;;;;;1.83;0.90;;;;;;;19.95;39.71;96607.91;10191472;29;20044;-82
2022/06/01 14:33:51;;;;;;;2.13;0.90;;;;;;;19.91;40.31;96615.06;10165200;29;20117;-83
2022/06/01 14:39:11;;;;;;;0.85;0.80;;;;;;;19.91;40.74;96608.88;10192659;29;20082;-82
2022/06/01 14:44:30;;;;;;;3.42;0.80;;;;;;;19.87;41.06;96606.03;10197602;29;20048;-81
2022/06/01 14:49:49;;;;;;;1.13;0.90;;;;;;;19.86;41.48;96606.38;10193046;29;20055;-81
2022/06/01 14:55:09;;;;;;;0.90;0.90;;;;;;;19.87;41.47;96614.13;10161377;29;20571;-83
2022/06/01 15:00:29;;;;;;;3.90;1.08;;;;;;;19.91;41.94;96606.94;10187556;29;20052;-82
2022/06/01 15:05:48;;;;;;;2.80;0.90;;;;;;;19.92;42.23;96602.34;10196276;29;20562;-82
2022/06/01 15:11:09;;;;;;;3.97;0.90;;;;;;;19.90;42.78;96597.28;10177335;29;20044;-82
2022/06/01 15:16:30;;;;;;;2.65;1.10;;;;;;;19.92;43.38;96592.31;10180966;29;20125;-82
2022/06/01 15:21:51;;;;;;;1.88;1.00;;;;;;;19.92;43.70;96588.84;10175868;29;20056;-82
2022/06/01 15:27:13;;;;;;;2.45;0.90;;;;;;;19.91;44.06;96579.91;10152303;29;20056;-82
2022/06/01 15:43:49;;;;;;;;;;;;;;;19.94;44.27;96571.16;10175327;29;20052;-82
2022/06/01 15:49:10;;;;;;;1.75;1.02;;;;;;;19.93;43.87;96572.28;10165320;29;19931;-82
2022/06/01 15:54:30;;;;;;;2.50;1.15;;;;;;;19.94;43.22;96562.25;10167975;29;20049;-82
2022/06/01 15:59:49;;;;;;;1.65;1.10;;;;;;;19.92;43.40;96561.81;10143837;29;20055;-82
2022/06/01 16:05:11;;;;;;;1.10;1.00;;;;;;;19.87;43.02;96567.41;10176403;29;20052;-83
2022/06/01 16:10:31;;;;;;;4.68;1.10;;;;;;;19.89;43.11;96565.16;10168141;29;20048;-82
2022/06/01 16:15:52;;;;;;;1.45;1.00;;;;;;;19.92;42.85;96559.09;10176358;29;20059;-84
2022/06/01 16:21:11;;;;;;;4.25;1.10;;;;;;;19.95;42.79;96556.53;10171131;29;20056;-83
2022/06/01 16:26:31;;;;;;;2.83;1.20;;;;;;;19.96;41.92;96557.31;10182312;29;20055;-84
2022/06/01 16:31:51;;;;;;;1.20;1.10;;;;;;;19.99;40.76;96545.81;10176912;29;20048;-83
2022/06/01 16:37:12;;;;;;;1.23;1.10;;;;;;;20.02;40.61;96549.78;10179532;29;20541;-83
2022/06/01 16:42:32;;;;;;;2.33;1.13;;;;;;;20.03;40.78;96552.16;10156896;29;20055;-82
2022/06/01 16:47:51;;;;;;;3.08;1.05;;;;;;;20.00;41.26;96546.63;10174072;29;20123;-83
2022/06/01 16:53:11;;;;;;;1.20;1.10;;;;;;;19.97;41.55;96553.47;10163886;29;20059;-83
2022/06/01 16:58:30;;;;;;;1.02;1.02;;;;;;;19.98;41.42;96552.34;10165869;29;20420;-83
2022/06/01 17:03:51;;;;;;;2.30;1.20;;;;;;;19.97;41.46;96548.06;10162531;29;20056;-84
2022/06/01 17:09:11;;;;;;;1.20;1.10;;;;;;;19.98;41.63;96551.56;10152308;29;20077;-84
2022/06/01 17:14:30;;;;;;;3.22;1.10;;;;;;;20.06;41.49;96540.66;10156149;29;20056;-85
2022/06/01 17:19:51;;;;;;;1.55;1.02;;;;;;;20.03;40.49;96530.53;10170054;29;20052;-84
2022/06/01 17:25:11;;;;;;;1.20;1.10;;;;;;;20.02;39.81;96533.56;10155255;29;20531;-83
2022/06/01 17:30:33;;;;;;;1.27;1.10;;;;;;;20.01;40.28;96537.38;10163910;29;20524;-83
2022/06/01 17:35:52;;;;;;;1.58;1.10;;;;;;;19.98;40.52;96540.75;10174720;29;20493;-85
2022/06/01 17:41:12;;;;;;;1.17;1.02;;;;;;;19.94;41.05;96549.53;10168780;29;20492;-85
2022/06/01 17:46:31;;;;;;;1.55;1.13;;;;;;;19.94;40.50;96538.72;10149092;29;20048;-83
2022/06/01 17:51:51;;;;;;;1.48;1.10;;;;;;;19.92;41.09;96545.59;10170827;29;20060;-83
2022/06/01 17:57:10;;;;;;;1.88;1.10;;;;;;;19.91;40.64;96549.38;10163419;29;20041;-85
2022/06/01 18:02:30;;;;;;;1.52;1.00;;;;;;;19.89;40.82;96551.63;10163196;29;20051;-85
2022/06/01 18:07:50;;;;;;;2.80;1.30;;;;;;;19.87;40.77;96551.97;10181944;29;20058;-86
2022/06/01 18:13:09;;;;;;;1.42;1.20;;;;;;;19.85;41.03;96553.44;10171289;29;20052;-85
2022/06/01 18:18:29;;;;;;;1.20;1.10;;;;;;;19.85;40.84;96566.94;10146692;29;20146;-85
2022/06/01 18:23:49;;;;;;;1.27;1.10;;;;;;;19.83;41.51;96559.16;10147411;29;20058;-86
2022/06/01 18:29:09;;;;;;;2.75;1.30;;;;;;;19.83;42.11;96563.78;10176506;29;20040;-86
2022/06/01 18:34:29;;;;;;;1.20;1.00;;;;;;;19.81;42.89;96572.22;10184284;29;20045;-86
2022/06/01 18:39:48;;;;;;;3.47;1.15;;;;;;;19.80;43.25;96559.03;10178254;29;20072;-88
2022/06/01 18:45:08;;;;;;;3.10;1.10;;;;;;;19.80;43.49;96562.53;10186705;29;20044;-86
2022/06/01 18:50:28;;;;;;;2.33;1.27;;;;;;;19.78;43.82;96562.09;10164439;29;20515;-87
2022/06/01 18:55:49;;;;;;;1.48;1.02;;;;;;;19.79;44.12;96565.56;10141997;29;20131;-86
2022/06/01 19:01:42;;;;;;;3.35;1.25;;;;;;;19.79;44.25;96573.69;10181830;29;20385;-86
2022/06/01 19:06:56;;;;;;;2.08;1.30;;;;;;;19.77;44.22;96559.69;10159943;29;20059;-87
2022/06/01 19:12:15;;;;;;;1.58;1.15;;;;;;;19.77;44.40;96574.00;10183372;29;20055;-86
2022/06/01 19:17:36;;;;;;;1.65;1.13;;;;;;;19.76;44.51;96583.25;10163001;29;20052;-87
2022/06/01 19:22:56;;;;;;;2.33;1.20;;;;;;;19.75;44.41;96578.94;10187885;29;20052;-86
2022/06/01 19:28:20;;;;;;;1.50;1.23;;;;;;;19.75;44.57;96589.75;10179892;29;20048;-86
2022/06/01 19:33:41;;;;;;;4.75;1.25;;;;;;;19.74;44.69;96599.00;10195589;29;20040;-82
2022/06/01 19:44:44;;;;;;;1.85;1.00;;;;;;;19.77;45.41;96611.06;10188077;29;20711;-82
2022/06/01 19:50:04;;;;;;;1.88;1.25;;;;;;;19.77;45.74;96608.34;10194017;29;20460;-82
2022/06/01 19:55:25;;;;;;;2.83;1.40;;;;;;;19.78;46.06;96620.72;10198835;29;20051;-82
2022/06/01 20:00:45;;;;;;;1.15;0.95;;;;;;;19.77;46.50;96617.25;10173868;29;20068;-81
2022/06/01 20:06:06;;;;;;;2.58;1.25;;;;;;;19.76;46.82;96618.38;10174267;29;20058;-82
2022/06/01 20:17:03;;;;;;;2.37;1.40;;;;;;;19.77;47.53;96627.28;10170051;29;20056;-81
2022/06/01 20:22:24;;;;;;;2.58;1.30;;;;;;;19.76;47.68;96642.72;10177619;29;20059;-82
2022/06/01 20:27:43;;;;;;;7.32;1.60;;;;;;;19.78;47.90;96648.56;10186153;29;20052;-82
2022/06/01 20:33:03;;;;;;;3.22;1.60;;;;;;;19.77;48.27;96651.59;10181781;29;20048;-83
2022/06/01 20:38:22;;;;;;;2.53;1.30;;;;;;;19.78;48.77;96659.38;10172415;29;20052;-84
2022/06/01 20:43:42;;;;;;;2.63;1.40;;;;;;;19.81;49.19;96661.41;10141639;29;20528;-85
2022/06/01 20:49:02;;;;;;;3.47;1.80;;;;;;;19.84;49.30;96673.50;10161892;29;20075;-83
2022/06/01 20:54:22;;;;;;;3.88;1.30;;;;;;;19.86;49.45;96672.03;10151333;29;20104;-83
2022/06/01 20:59:42;;;;;;;4.03;1.40;;;;;;;19.89;49.50;96676.00;10160067;29;20427;-83
2022/06/01 21:05:06;;;;;;;2.95;1.40;;;;;;;19.90;49.43;96678.38;10147019;29;20052;-83
2022/06/01 21:10:28;;;;;;;2.10;1.42;;;;;;;19.90;49.55;96681.09;10161146;29;20059;-83
2022/06/01 21:15:48;;;;;;;1.63;1.30;;;;;;;19.87;49.04;96684.44;10160922;29;20076;-83
2022/06/01 21:21:08;;;;;;;3.45;1.40;;;;;;;19.84;49.04;96697.84;10165858;29;20056;-83
2022/06/01 21:26:27;;;;;;;1.83;1.30;;;;;;;19.82;48.95;96702.78;10170796;29;20056;-83
2022/06/01 21:31:47;;;;;;;2.20;1.15;;;;;;;19.81;48.96;96696.56;10176315;29;20036;-83
2022/06/01 21:37:10;;;;;;;2.83;1.40;;;;;;;19.78;49.03;96702.63;10154072;29;20092;-83
2022/06/01 21:42:32;;;;;;;1.60;1.25;;;;;;;19.79;49.13;96703.41;10176831;29;20048;-83
2022/06/01 21:47:54;;;;;;;1.25;1.05;;;;;;;19.78;49.26;96707.22;10175278;29;20495;-84
2022/06/01 21:53:18;;;;;;;1.98;1.10;;;;;;;19.77;49.27;96721.88;10174888;29;20464;-84
2022/06/01 21:58:37;;;;;;;2.40;1.23;;;;;;;19.76;49.32;96745.41;10174407;29;20654;-83
2022/06/01 22:03:57;;;;;;;2.53;1.15;;;;;;;19.76;49.52;96753.53;10173046;29;20052;-83
2022/06/01 22:09:16;;;;;;;2.47;1.20;;;;;;;19.75;49.62;96760.03;10160073;29;20053;-84
2022/06/01 22:14:35;;;;;;;1.73;1.20;;;;;;;19.74;49.64;96761.97;10174609;29;20060;-83
2022/06/01 22:19:55;;;;;;;2.20;1.38;;;;;;;19.74;49.58;96767.38;10189238;29;20107;-83
2022/06/01 22:25:20;;;;;;;3.05;1.20;;;;;;;19.74;49.46;96766.56;10173946;29;20115;-83
2022/06/01 22:30:40;;;;;;;1.25;1.10;;;;;;;19.74;49.83;96766.56;10173822;29;20052;-84
2022/06/01 22:41:53;;;;;;;1.30;1.10;;;;;;;19.74;49.62;96799.00;10188180;29;20104;-83
2022/06/01 22:47:18;;;;;;;1.67;1.20;;;;;;;19.74;49.75;96799.00;10174267;29;20484;-84
2022/06/01 22:52:45;;;;;;;1.83;1.15;;;;;;;19.73;49.80;96808.22;10161237;29;20056;-83
2022/06/01 22:58:05;;;;;;;1.75;1.30;;;;;;;19.73;49.79;96802.81;10168539;29;20059;-83
2022/06/01 23:03:24;;;;;;;1.73;1.17;;;;;;;19.72;49.97;96802.03;10163853;29;20472;-83
2022/06/01 23:08:44;;;;;;;1.38;1.20;;;;;;;19.71;49.97;96799.63;10172046;29;20051;-83
2022/06/01 23:14:03;;;;;;;1.15;1.02;;;;;;;19.72;49.95;96793.16;10185486;29;20564;-83
2022/06/01 23:19:23;;;;;;;1.33;1.00;;;;;;;19.71;49.98;96788.81;10167393;29;20078;-83
2022/06/01 23:24:42;;;;;;;1.00;0.90;;;;;;;19.71;49.86;96810.44;10158595;29;20496;-83
2022/06/01 23:30:02;;;;;;;2.33;0.95;;;;;;;19.70;49.91;96820.47;10171576;29;20052;-84
2022/06/01 23:35:28;;;;;;;1.25;1.10;;;;;;;19.70;49.99;96825.88;10173295;29;20099;-83
2022/06/01 23:40:57;;;;;;;1.45;1.20;;;;;;;19.69;49.97;96826.97;10169978;29;20060;-83
2022/06/01 23:46:30;;;;;;;1.80;0.90;;;;;;;19.69;49.99;96834.28;10175675;29;20407;-83
2022/06/01 23:52:01;;;;;;;2.00;1.10;;;;;;;19.70;50.04;96825.06;10173314;29;20385;-83
2022/06/01 23:57:37;;;;;;;1.13;1.00;;;;;;;19.69;50.09;96818.06;10176465;29;20122;-83
